Wednesday, October 22, 2014, 11:21 AM EDT

KPOU, Poughkeepsie Dutchess Cty

Location: Wappingers Falls, NY, United States Lat: 41.633
Local Time: 11:21 AM EDT (15:21 GMT) Lon: -73.883
Time Zone: US/Eastern Elev: 167 ft

Show me the last for .
Show Decoded

2014-10-22 10:31 METAR KPOU 221431Z 01009KT 7SM SCT011 OVC021 11/09 A3000 RMK AO2 T01110089 =
2014-10-22 09:53 METAR KPOU 221353Z 02009KT 10SM OVC011 11/08 A3001 RMK AO2 SLP159 T01110083 =
2014-10-22 08:53 METAR KPOU 221253Z AUTO 01008KT 10SM OVC010 11/09 A3000 RMK AO2 CIG 009V013
                 SLP156 T01110089 TSNO =
2014-10-22 07:53 METAR KPOU 221153Z AUTO 36007KT 10SM OVC010 11/09 A2999 RMK AO2 SLP153 70020
                 T01110089 10117 20111 53014 TSNO =
2014-10-22 06:53 METAR KPOU 221053Z AUTO 01010G15KT 10SM BKN011 OVC017 11/09 A2997 RMK AO2 CIG
                 009V015 SLP145 T01110089 TSNO =
2014-10-22 06:32 METAR KPOU 221032Z AUTO 36009KT 10SM SCT010 OVC017 11/09 A2996 RMK AO2 T01110089
                 TSNO =
2014-10-22 06:20 METAR KPOU 221020Z AUTO 01010KT 10SM BKN010 OVC017 11/09 A2996 RMK AO2 CIG
                 009V012 T01110089 TSNO =
2014-10-22 05:53 METAR KPOU 220953Z AUTO 36008KT 10SM FEW010 OVC018 11/09 A2996 RMK AO2 SLP141
                 T01110089 TSNO =
2014-10-22 05:09 METAR KPOU 220909Z AUTO 36009KT 10SM FEW008 OVC017 11/09 A2994 RMK AO2 T01110094
                 TSNO =
2014-10-22 04:53 METAR KPOU 220853Z AUTO 35008KT 10SM FEW010 OVC017 11/09 A2995 RMK AO2 SLP138
                 T01110094 53001 TSNO =
2014-10-22 04:27 METAR KPOU 220827Z AUTO 36007KT 10SM SCT008 OVC017 11/09 A2995 RMK AO2 T01110094
                 TSNO =
2014-10-22 03:53 METAR KPOU 220753Z AUTO 36008KT 10SM OVC007 11/09 A2994 RMK AO2 SLP135 T01110094
                 TSNO =
2014-10-22 02:53 METAR KPOU 220653Z AUTO 01008KT 9SM BKN008 OVC020 11/10 A2994 RMK AO2 SLP135
                 T01110100 TSNO =
2014-10-22 01:53 METAR KPOU 220553Z AUTO 35006KT 7SM OVC007 12/10 A2995 RMK AO2 SLP137 60010
                 T01170100 10122 20111 58004 TSNO =
2014-10-22 01:04 METAR KPOU 220504Z AUTO 35007KT 8SM BKN008 OVC018 12/11 A2994 RMK AO2 T01170106
                 TSNO =
2014-10-22 00:53 METAR KPOU 220453Z AUTO 35005KT 8SM SCT008 OVC018 12/11 A2995 RMK AO2 RAB40E53
                 SLP138 P0001 T01220106 401390089 TSNO =
2014-10-22 00:27 METAR KPOU 220427Z AUTO 36003KT 6SM BR FEW006 OVC020 12/11 A2995 RMK AO2
                 T01220106 TSNO =
2014-10-21 23:53 METAR KPOU 220353Z AUTO 34004KT 6SM BR OVC021 12/11 A2996 RMK AO2 RAB11E42
                 SLP141 P0002 T01170106 TSNO =
2014-10-21 22:53 METAR KPOU 220253Z AUTO 02005KT 7SM FEW005 BKN024 OVC049 12/11 A2996 RMK AO2
                 RAE29 SLP141 P0003 60007 T01170106 51017 TSNO =
2014-10-21 22:20 METAR KPOU 220220Z AUTO 01006KT 5SM -RA BR SCT005 BKN046 OVC070 12/11 A2995 RMK
                 AO2 P0003 T01170106 TSNO =
2014-10-21 21:53 METAR KPOU 220153Z AUTO 05003KT 8SM -RA BKN006 OVC030 12/11 A2995 RMK AO2
                 RAB0057E07B27 SLP139 P0004 T01170106 TSNO =
2014-10-21 21:00 METAR KPOU 220100Z AUTO 33003KT 9SM -RA OVC006 12/10 A2993 =
2014-10-21 20:53 METAR KPOU 220053Z AUTO 00000KT 9SM SCT006 OVC070 12/10 A2993 RMK AO2 SLP131
                 T01170100 TSNO =
2014-10-21 19:53 METAR KPOU 212353Z 00000KT 9SM FEW006 OVC070 11/10 A2991 RMK AO2 SLP125
                 T01110100 10139 20111 53013 =
2014-10-21 18:53 METAR KPOU 212253Z 00000KT 10SM FEW095 11/10 A2989 RMK AO2 SLP119 T01110100 =
2014-10-21 17:53 METAR KPOU 212153Z 00000KT 10SM BKN043 OVC060 12/11 A2988 =
2014-10-21 16:53 METAR KPOU 212053Z 01005KT 10SM FEW046 SCT095 13/10 A2987 RMK AO2 SLP112
                 T01280100 55002 =
2014-10-21 15:53 METAR KPOU 211953Z 01006KT 10SM FEW046 SCT070 OVC090 13/10 A2987 RMK AO2 SLP112
                 T01330100 =
2014-10-21 14:53 METAR KPOU 211853Z 36003KT 10SM SCT007 BKN048 OVC100 12/10 A2988 RMK AO2 SLP114
                 T01220100 =
2014-10-21 14:48 METAR KPOU 211848Z 36003KT 10SM BKN007 BKN048 OVC060 12/10 A2988 RMK AO2 =
2014-10-21 14:13 METAR KPOU 211813Z 35005KT 10SM FEW006 BKN047 OVC065 12/10 A2988 RMK AO2
                 T01170100 =
2014-10-21 13:53 METAR KPOU 211753Z 01005KT 10SM FEW035 SCT045 OVC065 12/10 A2988 RMK AO2
                 RAB09E52 SLP116 P0001 60010 T01170100 10122 20106 58015 =
2014-10-21 13:18 METAR KPOU 211718Z 32004KT 10SM -RA SCT008 BKN036 OVC055 12/09 A2990 RMK AO2
                 RAB09 P0001 T01170094 =
2014-10-21 13:00 METAR KPOU 211700Z 34005KT 10SM BKN006 OVC055 12/09 A2990 RMK AO2 T01170094 =
2014-10-21 12:53 METAR KPOU 211653Z 36006KT 10SM SCT006 OVC050 12/09 A2990 RMK AO2 SLP121
                 T01170094 =
2014-10-21 12:40 METAR KPOU 211640Z 36005KT 10SM BKN006 OVC050 12/09 A2990 =
2014-10-21 11:53 METAR KPOU 211553Z 35004KT 10SM SCT006 OVC055 12/10 A2991 RMK AO2 RAE18 SLP126
                 P0000 T01170100 =

Support USWX by starting your Amazon purchase here.